sensor_id;sensor_type;location;lat;lon;timestamp;P1;durP1;ratioP1;P2;durP2;ratioP2
16866;SDS011;8550;52.596;13.320;2023-03-04T00:03:12;10.90;;;6.03;;
16866;SDS011;8550;52.596;13.320;2023-03-04T00:08:14;9.73;;;4.68;;
16866;SDS011;8550;52.596;13.320;2023-03-04T00:13:17;12.00;;;4.67;;
16866;SDS011;8550;52.596;13.320;2023-03-04T00:18:21;9.35;;;4.53;;
16866;SDS011;8550;52.596;13.320;2023-03-04T00:23:23;11.82;;;5.53;;
16866;SDS011;8550;52.596;13.320;2023-03-04T00:28:26;12.00;;;3.87;;
16866;SDS011;8550;52.596;13.320;2023-03-04T00:33:28;12.13;;;5.63;;
16866;SDS011;8550;52.596;13.320;2023-03-04T00:38:30;20.50;;;5.32;;
16866;SDS011;8550;52.596;13.320;2023-03-04T00:43:33;9.47;;;3.87;;
16866;SDS011;8550;52.596;13.320;2023-03-04T00:48:35;7.73;;;2.73;;
16866;SDS011;8550;52.596;13.320;2023-03-04T00:53:37;19.67;;;5.57;;
16866;SDS011;8550;52.596;13.320;2023-03-04T00:58:40;13.10;;;4.03;;
16866;SDS011;8550;52.596;13.320;2023-03-04T01:03:42;11.73;;;3.77;;
16866;SDS011;8550;52.596;13.320;2023-03-04T01:08:44;5.97;;;2.88;;
16866;SDS011;8550;52.596;13.320;2023-03-04T01:13:48;2.25;;;1.50;;
16866;SDS011;8550;52.596;13.320;2023-03-04T01:18:49;19.17;;;4.83;;
16866;SDS011;8550;52.596;13.320;2023-03-04T01:23:51;20.65;;;2.47;;
16866;SDS011;8550;52.596;13.320;2023-03-04T01:28:55;7.35;;;1.75;;
16866;SDS011;8550;52.596;13.320;2023-03-04T01:33:56;13.23;;;3.00;;
16866;SDS011;8550;52.596;13.320;2023-03-04T01:38:58;7.07;;;2.70;;
16866;SDS011;8550;52.596;13.320;2023-03-04T01:44:02;2.92;;;1.67;;
16866;SDS011;8550;52.596;13.320;2023-03-04T01:49:05;6.55;;;2.75;;
16866;SDS011;8550;52.596;13.320;2023-03-04T01:54:07;2.03;;;0.90;;
16866;SDS011;8550;52.596;13.320;2023-03-04T01:59:11;5.85;;;2.42;;
16866;SDS011;8550;52.596;13.320;2023-03-04T02:04:15;10.70;;;2.22;;
16866;SDS011;8550;52.596;13.320;2023-03-04T02:09:18;2.30;;;0.93;;
16866;SDS011;8550;52.596;13.320;2023-03-04T02:14:22;2.55;;;0.60;;
16866;SDS011;8550;52.596;13.320;2023-03-04T02:19:30;12.52;;;3.42;;
16866;SDS011;8550;52.596;13.320;2023-03-04T02:24:42;1.90;;;0.93;;
16866;SDS011;8550;52.596;13.320;2023-03-04T02:29:47;12.67;;;2.53;;
16866;SDS011;8550;52.596;13.320;2023-03-04T02:34:49;5.75;;;2.35;;
16866;SDS011;8550;52.596;13.320;2023-03-04T02:39:51;3.50;;;1.60;;
16866;SDS011;8550;52.596;13.320;2023-03-04T02:44:59;3.77;;;0.50;;
16866;SDS011;8550;52.596;13.320;2023-03-04T02:50:02;4.05;;;1.80;;
16866;SDS011;8550;52.596;13.320;2023-03-04T02:55:04;13.10;;;1.23;;
16866;SDS011;8550;52.596;13.320;2023-03-04T03:00:09;9.77;;;1.43;;
16866;SDS011;8550;52.596;13.320;2023-03-04T03:05:12;3.92;;;2.10;;
16866;SDS011;8550;52.596;13.320;2023-03-04T03:10:14;9.27;;;2.10;;
16866;SDS011;8550;52.596;13.320;2023-03-04T03:15:18;4.63;;;2.07;;
16866;SDS011;8550;52.596;13.320;2023-03-04T03:20:20;3.33;;;1.10;;
16866;SDS011;8550;52.596;13.320;2023-03-04T03:25:21;6.90;;;2.35;;
16866;SDS011;8550;52.596;13.320;2023-03-04T03:30:25;6.95;;;1.48;;
16866;SDS011;8550;52.596;13.320;2023-03-04T03:35:27;5.20;;;0.87;;
16866;SDS011;8550;52.596;13.320;2023-03-04T03:40:29;3.30;;;1.63;;
16866;SDS011;8550;52.596;13.320;2023-03-04T03:45:32;3.30;;;1.67;;
16866;SDS011;8550;52.596;13.320;2023-03-04T03:50:34;3.70;;;1.30;;
16866;SDS011;8550;52.596;13.320;2023-03-04T03:55:36;6.18;;;1.65;;
16866;SDS011;8550;52.596;13.320;2023-03-04T04:00:39;2.40;;;0.82;;
16866;SDS011;8550;52.596;13.320;2023-03-04T04:05:41;10.53;;;1.83;;
16866;SDS011;8550;52.596;13.320;2023-03-04T04:10:43;3.93;;;1.07;;
16866;SDS011;8550;52.596;13.320;2023-03-04T04:15:47;4.05;;;0.82;;
16866;SDS011;8550;52.596;13.320;2023-03-04T04:20:51;8.55;;;1.77;;
16866;SDS011;8550;52.596;13.320;2023-03-04T04:25:53;4.57;;;1.20;;
16866;SDS011;8550;52.596;13.320;2023-03-04T04:30:57;3.28;;;1.02;;
16866;SDS011;8550;52.596;13.320;2023-03-04T04:35:58;10.70;;;1.27;;
16866;SDS011;8550;52.596;13.320;2023-03-04T04:41:02;8.30;;;1.33;;
16866;SDS011;8550;52.596;13.320;2023-03-04T04:46:07;5.57;;;1.45;;
16866;SDS011;8550;52.596;13.320;2023-03-04T04:51:09;5.93;;;1.08;;
16866;SDS011;8550;52.596;13.320;2023-03-04T04:56:12;1.07;;;0.67;;
16866;SDS011;8550;52.596;13.320;2023-03-04T05:01:17;3.87;;;1.63;;
16866;SDS011;8550;52.596;13.320;2023-03-04T05:06:19;8.88;;;1.75;;
16866;SDS011;8550;52.596;13.320;2023-03-04T05:11:21;5.55;;;1.48;;
16866;SDS011;8550;52.596;13.320;2023-03-04T05:16:25;2.83;;;0.93;;
16866;SDS011;8550;52.596;13.320;2023-03-04T05:21:27;2.13;;;0.93;;
16866;SDS011;8550;52.596;13.320;2023-03-04T05:26:28;3.25;;;0.90;;
16866;SDS011;8550;52.596;13.320;2023-03-04T05:31:32;9.80;;;0.90;;
16866;SDS011;8550;52.596;13.320;2023-03-04T05:36:34;6.35;;;1.17;;
16866;SDS011;8550;52.596;13.320;2023-03-04T05:41:36;12.50;;;1.27;;
16866;SDS011;8550;52.596;13.320;2023-03-04T05:46:39;2.60;;;1.17;;
16866;SDS011;8550;52.596;13.320;2023-03-04T05:51:41;6.37;;;1.20;;
16866;SDS011;8550;52.596;13.320;2023-03-04T05:56:43;3.55;;;1.30;;
16866;SDS011;8550;52.596;13.320;2023-03-04T06:01:47;5.72;;;1.38;;
16866;SDS011;8550;52.596;13.320;2023-03-04T06:06:49;5.73;;;1.30;;
16866;SDS011;8550;52.596;13.320;2023-03-04T06:11:51;2.45;;;0.95;;
16866;SDS011;8550;52.596;13.320;2023-03-04T06:16:54;1.00;;;0.43;;
16866;SDS011;8550;52.596;13.320;2023-03-04T06:21:56;8.03;;;0.83;;
16866;SDS011;8550;52.596;13.320;2023-03-04T06:26:58;1.75;;;0.43;;
16866;SDS011;8550;52.596;13.320;2023-03-04T06:32:01;1.58;;;0.45;;
16866;SDS011;8550;52.596;13.320;2023-03-04T06:37:03;8.40;;;0.93;;
16866;SDS011;8550;52.596;13.320;2023-03-04T06:42:05;1.03;;;0.43;;
16866;SDS011;8550;52.596;13.320;2023-03-04T06:47:09;3.53;;;0.80;;
16866;SDS011;8550;52.596;13.320;2023-03-04T06:52:10;2.38;;;0.85;;
16866;SDS011;8550;52.596;13.320;2023-03-04T06:57:12;1.20;;;0.20;;
16866;SDS011;8550;52.596;13.320;2023-03-04T07:02:16;1.30;;;0.30;;
16866;SDS011;8550;52.596;13.320;2023-03-04T07:07:18;1.73;;;0.38;;
16866;SDS011;8550;52.596;13.320;2023-03-04T07:12:19;1.10;;;0.30;;
16866;SDS011;8550;52.596;13.320;2023-03-04T07:17:23;0.80;;;0.25;;
16866;SDS011;8550;52.596;13.320;2023-03-04T07:22:25;1.00;;;0.28;;
16866;SDS011;8550;52.596;13.320;2023-03-04T07:27:26;1.37;;;0.57;;
16866;SDS011;8550;52.596;13.320;2023-03-04T07:32:30;6.03;;;1.00;;
16866;SDS011;8550;52.596;13.320;2023-03-04T07:37:33;2.35;;;0.30;;
16866;SDS011;8550;52.596;13.320;2023-03-04T07:42:35;1.50;;;0.50;;
16866;SDS011;8550;52.596;13.320;2023-03-04T07:47:38;11.00;;;0.90;;
16866;SDS011;8550;52.596;13.320;2023-03-04T07:52:41;1.95;;;0.50;;
16866;SDS011;8550;52.596;13.320;2023-03-04T07:57:44;2.15;;;0.30;;
16866;SDS011;8550;52.596;13.320;2023-03-04T08:02:49;3.57;;;0.90;;
16866;SDS011;8550;52.596;13.320;2023-03-04T08:07:51;3.70;;;0.82;;
16866;SDS011;8550;52.596;13.320;2023-03-04T08:12:52;3.80;;;1.45;;
16866;SDS011;8550;52.596;13.320;2023-03-04T08:17:56;2.03;;;0.73;;
16866;SDS011;8550;52.596;13.320;2023-03-04T08:22:58;3.23;;;0.30;;
16866;SDS011;8550;52.596;13.320;2023-03-04T08:27:59;3.35;;;1.38;;
16866;SDS011;8550;52.596;13.320;2023-03-04T08:33:03;2.25;;;0.50;;
16866;SDS011;8550;52.596;13.320;2023-03-04T08:38:05;0.93;;;0.30;;
16866;SDS011;8550;52.596;13.320;2023-03-04T08:43:07;4.72;;;0.50;;
16866;SDS011;8550;52.596;13.320;2023-03-04T08:48:11;1.50;;;0.52;;
16866;SDS011;8550;52.596;13.320;2023-03-04T08:53:13;6.60;;;1.60;;
16866;SDS011;8550;52.596;13.320;2023-03-04T08:58:16;2.47;;;0.40;;
16866;SDS011;8550;52.596;13.320;2023-03-04T09:03:19;4.22;;;0.50;;
16866;SDS011;8550;52.596;13.320;2023-03-04T09:08:21;1.13;;;0.33;;
16866;SDS011;8550;52.596;13.320;2023-03-04T09:13:23;1.70;;;0.60;;
16866;SDS011;8550;52.596;13.320;2023-03-04T09:18:27;4.03;;;0.93;;
16866;SDS011;8550;52.596;13.320;2023-03-04T09:23:29;1.73;;;0.55;;
16866;SDS011;8550;52.596;13.320;2023-03-04T09:28:31;1.00;;;0.50;;
16866;SDS011;8550;52.596;13.320;2023-03-04T09:33:34;1.15;;;0.60;;
16866;SDS011;8550;52.596;13.320;2023-03-04T09:38:36;3.55;;;0.65;;
16866;SDS011;8550;52.596;13.320;2023-03-04T09:43:39;1.20;;;0.30;;
16866;SDS011;8550;52.596;13.320;2023-03-04T09:48:46;3.50;;;0.90;;
16866;SDS011;8550;52.596;13.320;2023-03-04T09:53:54;4.00;;;0.40;;
16866;SDS011;8550;52.596;13.320;2023-03-04T09:59:04;2.37;;;0.83;;
16866;SDS011;8550;52.596;13.320;2023-03-04T10:04:17;0.93;;;0.40;;
16866;SDS011;8550;52.596;13.320;2023-03-04T10:09:42;2.90;;;0.70;;
16866;SDS011;8550;52.596;13.320;2023-03-04T10:14:48;3.55;;;0.47;;
16866;SDS011;8550;52.596;13.320;2023-03-04T10:19:59;2.40;;;0.80;;
16866;SDS011;8550;52.596;13.320;2023-03-04T10:25:13;1.95;;;0.40;;
16866;SDS011;8550;52.596;13.320;2023-03-04T10:30:29;6.47;;;1.13;;
16866;SDS011;8550;52.596;13.320;2023-03-04T10:35:41;4.33;;;1.10;;
16866;SDS011;8550;52.596;13.320;2023-03-04T10:40:46;2.70;;;0.98;;
16866;SDS011;8550;52.596;13.320;2023-03-04T10:45:48;4.60;;;0.60;;
16866;SDS011;8550;52.596;13.320;2023-03-04T10:51:08;1.70;;;0.40;;
16866;SDS011;8550;52.596;13.320;2023-03-04T10:56:29;2.57;;;0.90;;
16866;SDS011;8550;52.596;13.320;2023-03-04T11:01:34;0.45;;;0.20;;
16866;SDS011;8550;52.596;13.320;2023-03-04T11:06:40;14.07;;;1.08;;
16866;SDS011;8550;52.596;13.320;2023-03-04T11:11:42;4.03;;;1.27;;
16866;SDS011;8550;52.596;13.320;2023-03-04T11:16:50;10.02;;;1.08;;
16866;SDS011;8550;52.596;13.320;2023-03-04T11:21:56;4.57;;;1.08;;
16866;SDS011;8550;52.596;13.320;2023-03-04T11:27:01;3.30;;;1.47;;
16866;SDS011;8550;52.596;13.320;2023-03-04T11:32:07;1.77;;;0.60;;
16866;SDS011;8550;52.596;13.320;2023-03-04T11:37:16;5.97;;;0.68;;
16866;SDS011;8550;52.596;13.320;2023-03-04T11:42:27;1.60;;;0.77;;
16866;SDS011;8550;52.596;13.320;2023-03-04T11:47:38;8.87;;;1.17;;
16866;SDS011;8550;52.596;13.320;2023-03-04T11:58:32;2.97;;;1.33;;
16866;SDS011;8550;52.596;13.320;2023-03-04T12:03:50;2.50;;;0.97;;
16866;SDS011;8550;52.596;13.320;2023-03-04T12:09:10;2.03;;;0.43;;
16866;SDS011;8550;52.596;13.320;2023-03-04T12:14:26;6.43;;;1.92;;
16866;SDS011;8550;52.596;13.320;2023-03-04T12:19:37;5.27;;;0.50;;
16866;SDS011;8550;52.596;13.320;2023-03-04T12:30:39;5.55;;;1.02;;
16866;SDS011;8550;52.596;13.320;2023-03-04T12:35:55;4.33;;;1.20;;
16866;SDS011;8550;52.596;13.320;2023-03-04T12:41:10;2.90;;;1.43;;
16866;SDS011;8550;52.596;13.320;2023-03-04T12:46:31;2.17;;;0.73;;
16866;SDS011;8550;52.596;13.320;2023-03-04T12:51:42;7.82;;;1.05;;
16866;SDS011;8550;52.596;13.320;2023-03-04T12:56:52;7.47;;;1.30;;
16866;SDS011;8550;52.596;13.320;2023-03-04T13:02:02;5.15;;;1.27;;
16866;SDS011;8550;52.596;13.320;2023-03-04T13:07:19;4.97;;;1.63;;
16866;SDS011;8550;52.596;13.320;2023-03-04T13:12:46;7.57;;;0.60;;
16866;SDS011;8550;52.596;13.320;2023-03-04T13:17:49;1.38;;;0.20;;
16866;SDS011;8550;52.596;13.320;2023-03-04T13:22:54;10.38;;;0.80;;
16866;SDS011;8550;52.596;13.320;2023-03-04T13:39:13;5.35;;;0.70;;
16866;SDS011;8550;52.596;13.320;2023-03-04T13:50:21;4.07;;;1.03;;
16866;SDS011;8550;52.596;13.320;2023-03-04T13:55:40;5.78;;;1.67;;
16866;SDS011;8550;52.596;13.320;2023-03-04T14:00:48;12.20;;;0.93;;
16866;SDS011;8550;52.596;13.320;2023-03-04T14:06:08;5.07;;;1.17;;
16866;SDS011;8550;52.596;13.320;2023-03-04T14:11:12;1.58;;;0.60;;
16866;SDS011;8550;52.596;13.320;2023-03-04T14:16:19;3.97;;;0.88;;
16866;SDS011;8550;52.596;13.320;2023-03-04T14:26:36;3.03;;;0.80;;
16866;SDS011;8550;52.596;13.320;2023-03-04T14:31:41;11.27;;;2.13;;
16866;SDS011;8550;52.596;13.320;2023-03-04T14:36:43;5.80;;;0.60;;
16866;SDS011;8550;52.596;13.320;2023-03-04T14:41:45;4.27;;;1.57;;
16866;SDS011;8550;52.596;13.320;2023-03-04T14:46:52;6.88;;;1.80;;
16866;SDS011;8550;52.596;13.320;2023-03-04T14:51:56;10.77;;;1.58;;
16866;SDS011;8550;52.596;13.320;2023-03-04T14:56:59;8.47;;;1.00;;
16866;SDS011;8550;52.596;13.320;2023-03-04T15:02:27;4.32;;;1.20;;
16866;SDS011;8550;52.596;13.320;2023-03-04T15:07:33;7.70;;;0.98;;
16866;SDS011;8550;52.596;13.320;2023-03-04T15:12:36;3.47;;;1.57;;
16866;SDS011;8550;52.596;13.320;2023-03-04T15:17:40;1.13;;;0.50;;
16866;SDS011;8550;52.596;13.320;2023-03-04T15:23:01;3.63;;;1.17;;
16866;SDS011;8550;52.596;13.320;2023-03-04T15:28:09;3.28;;;0.95;;
16866;SDS011;8550;52.596;13.320;2023-03-04T15:33:18;8.87;;;1.47;;
16866;SDS011;8550;52.596;13.320;2023-03-04T15:38:20;5.30;;;1.23;;
16866;SDS011;8550;52.596;13.320;2023-03-04T15:43:23;7.75;;;1.10;;
16866;SDS011;8550;52.596;13.320;2023-03-04T15:48:26;0.50;;;0.20;;
16866;SDS011;8550;52.596;13.320;2023-03-04T15:53:30;6.07;;;1.38;;
16866;SDS011;8550;52.596;13.320;2023-03-04T15:58:35;2.03;;;0.55;;
16866;SDS011;8550;52.596;13.320;2023-03-04T16:03:39;3.13;;;0.90;;
16866;SDS011;8550;52.596;13.320;2023-03-04T16:08:41;5.83;;;2.47;;
16866;SDS011;8550;52.596;13.320;2023-03-04T16:13:43;3.05;;;0.82;;
16866;SDS011;8550;52.596;13.320;2023-03-04T16:18:47;5.45;;;0.57;;
16866;SDS011;8550;52.596;13.320;2023-03-04T16:23:49;4.93;;;1.07;;
16866;SDS011;8550;52.596;13.320;2023-03-04T16:28:53;3.70;;;0.95;;
16866;SDS011;8550;52.596;13.320;2023-03-04T16:33:56;3.28;;;1.08;;
16866;SDS011;8550;52.596;13.320;2023-03-04T16:38:59;4.43;;;1.13;;
16866;SDS011;8550;52.596;13.320;2023-03-04T16:44:08;2.58;;;0.45;;
16866;SDS011;8550;52.596;13.320;2023-03-04T16:49:14;6.50;;;1.48;;
16866;SDS011;8550;52.596;13.320;2023-03-04T16:54:17;4.33;;;0.77;;
16866;SDS011;8550;52.596;13.320;2023-03-04T16:59:24;3.83;;;1.10;;
16866;SDS011;8550;52.596;13.320;2023-03-04T17:04:28;2.17;;;0.93;;
16866;SDS011;8550;52.596;13.320;2023-03-04T17:09:30;1.15;;;0.65;;
16866;SDS011;8550;52.596;13.320;2023-03-04T17:14:32;6.37;;;0.57;;
16866;SDS011;8550;52.596;13.320;2023-03-04T17:19:36;3.53;;;0.75;;
16866;SDS011;8550;52.596;13.320;2023-03-04T17:24:38;2.53;;;0.63;;
16866;SDS011;8550;52.596;13.320;2023-03-04T17:29:39;9.40;;;1.93;;
16866;SDS011;8550;52.596;13.320;2023-03-04T17:34:43;4.50;;;1.17;;
16866;SDS011;8550;52.596;13.320;2023-03-04T17:39:45;3.45;;;1.05;;
16866;SDS011;8550;52.596;13.320;2023-03-04T17:44:47;6.10;;;0.83;;
16866;SDS011;8550;52.596;13.320;2023-03-04T17:49:50;2.57;;;0.47;;
16866;SDS011;8550;52.596;13.320;2023-03-04T17:54:52;5.53;;;1.23;;
16866;SDS011;8550;52.596;13.320;2023-03-04T17:59:54;6.15;;;2.30;;
16866;SDS011;8550;52.596;13.320;2023-03-04T18:05:00;2.77;;;0.73;;
16866;SDS011;8550;52.596;13.320;2023-03-04T18:10:05;7.90;;;1.70;;
16866;SDS011;8550;52.596;13.320;2023-03-04T18:15:07;6.32;;;1.50;;
16866;SDS011;8550;52.596;13.320;2023-03-04T18:20:12;8.53;;;1.37;;
16866;SDS011;8550;52.596;13.320;2023-03-04T18:25:13;12.43;;;2.28;;
16866;SDS011;8550;52.596;13.320;2023-03-04T18:30:16;5.75;;;1.17;;
16866;SDS011;8550;52.596;13.320;2023-03-04T18:35:21;6.83;;;1.60;;
16866;SDS011;8550;52.596;13.320;2023-03-04T18:40:23;4.50;;;2.13;;
16866;SDS011;8550;52.596;13.320;2023-03-04T18:45:25;3.10;;;1.00;;
16866;SDS011;8550;52.596;13.320;2023-03-04T18:50:29;3.05;;;0.75;;
16866;SDS011;8550;52.596;13.320;2023-03-04T18:55:39;4.87;;;0.87;;
16866;SDS011;8550;52.596;13.320;2023-03-04T19:00:43;6.78;;;1.55;;
16866;SDS011;8550;52.596;13.320;2023-03-04T19:05:46;3.22;;;0.75;;
16866;SDS011;8550;52.596;13.320;2023-03-04T19:10:49;1.70;;;0.20;;
16866;SDS011;8550;52.596;13.320;2023-03-04T19:15:51;1.70;;;0.57;;
16866;SDS011;8550;52.596;13.320;2023-03-04T19:20:56;3.83;;;0.65;;
16866;SDS011;8550;52.596;13.320;2023-03-04T19:26:00;9.90;;;1.53;;
16866;SDS011;8550;52.596;13.320;2023-03-04T19:31:06;7.47;;;1.27;;
16866;SDS011;8550;52.596;13.320;2023-03-04T19:36:10;12.52;;;1.85;;
16866;SDS011;8550;52.596;13.320;2023-03-04T19:41:12;11.10;;;1.50;;
16866;SDS011;8550;52.596;13.320;2023-03-04T19:46:16;4.00;;;0.90;;
16866;SDS011;8550;52.596;13.320;2023-03-04T19:51:20;6.03;;;1.75;;
16866;SDS011;8550;52.596;13.320;2023-03-04T19:56:26;3.63;;;0.98;;
16866;SDS011;8550;52.596;13.320;2023-03-04T20:01:29;8.30;;;3.47;;
16866;SDS011;8550;52.596;13.320;2023-03-04T20:06:35;1.92;;;1.13;;
16866;SDS011;8550;52.596;13.320;2023-03-04T20:11:38;4.07;;;0.80;;
16866;SDS011;8550;52.596;13.320;2023-03-04T20:16:40;4.33;;;1.47;;
16866;SDS011;8550;52.596;13.320;2023-03-04T20:21:44;11.10;;;1.80;;
16866;SDS011;8550;52.596;13.320;2023-03-04T20:26:46;4.53;;;1.30;;
16866;SDS011;8550;52.596;13.320;2023-03-04T20:31:47;8.75;;;2.03;;
16866;SDS011;8550;52.596;13.320;2023-03-04T20:36:51;4.60;;;1.07;;
16866;SDS011;8550;52.596;13.320;2023-03-04T20:41:53;4.00;;;1.00;;
16866;SDS011;8550;52.596;13.320;2023-03-04T20:46:55;1.65;;;0.68;;
16866;SDS011;8550;52.596;13.320;2023-03-04T20:51:59;1.90;;;0.57;;
16866;SDS011;8550;52.596;13.320;2023-03-04T20:57:05;6.47;;;0.80;;
16866;SDS011;8550;52.596;13.320;2023-03-04T21:02:10;9.02;;;1.65;;
16866;SDS011;8550;52.596;13.320;2023-03-04T21:07:16;2.43;;;0.83;;
16866;SDS011;8550;52.596;13.320;2023-03-04T21:12:18;6.73;;;1.20;;
16866;SDS011;8550;52.596;13.320;2023-03-04T21:17:21;8.90;;;1.30;;
16866;SDS011;8550;52.596;13.320;2023-03-04T21:22:24;7.28;;;1.23;;
16866;SDS011;8550;52.596;13.320;2023-03-04T21:27:28;3.63;;;1.10;;
16866;SDS011;8550;52.596;13.320;2023-03-04T21:32:30;6.57;;;1.02;;
16866;SDS011;8550;52.596;13.320;2023-03-04T21:37:33;8.02;;;1.42;;
16866;SDS011;8550;52.596;13.320;2023-03-04T21:42:35;22.30;;;8.23;;
16866;SDS011;8550;52.596;13.320;2023-03-04T21:47:37;8.50;;;2.70;;
16866;SDS011;8550;52.596;13.320;2023-03-04T21:52:41;5.70;;;1.42;;
16866;SDS011;8550;52.596;13.320;2023-03-04T21:57:43;4.20;;;1.23;;
16866;SDS011;8550;52.596;13.320;2023-03-04T22:02:45;6.30;;;1.80;;
16866;SDS011;8550;52.596;13.320;2023-03-04T22:07:48;7.47;;;1.10;;
16866;SDS011;8550;52.596;13.320;2023-03-04T22:12:50;9.05;;;2.72;;
16866;SDS011;8550;52.596;13.320;2023-03-04T22:17:52;9.07;;;1.37;;
16866;SDS011;8550;52.596;13.320;2023-03-04T22:22:55;4.30;;;0.90;;
16866;SDS011;8550;52.596;13.320;2023-03-04T22:27:57;3.40;;;1.52;;
16866;SDS011;8550;52.596;13.320;2023-03-04T22:32:59;3.27;;;1.07;;
16866;SDS011;8550;52.596;13.320;2023-03-04T22:38:02;6.05;;;0.95;;
16866;SDS011;8550;52.596;13.320;2023-03-04T22:43:04;2.70;;;0.50;;
16866;SDS011;8550;52.596;13.320;2023-03-04T22:48:06;1.27;;;0.60;;
16866;SDS011;8550;52.596;13.320;2023-03-04T22:53:09;3.83;;;1.00;;
16866;SDS011;8550;52.596;13.320;2023-03-04T22:58:11;9.50;;;1.17;;
16866;SDS011;8550;52.596;13.320;2023-03-04T23:03:13;1.73;;;0.80;;
16866;SDS011;8550;52.596;13.320;2023-03-04T23:08:16;9.57;;;1.50;;
16866;SDS011;8550;52.596;13.320;2023-03-04T23:13:18;5.35;;;1.10;;
16866;SDS011;8550;52.596;13.320;2023-03-04T23:18:20;7.70;;;1.48;;
16866;SDS011;8550;52.596;13.320;2023-03-04T23:23:23;2.47;;;1.03;;
16866;SDS011;8550;52.596;13.320;2023-03-04T23:28:25;5.30;;;0.75;;
16866;SDS011;8550;52.596;13.320;2023-03-04T23:33:27;3.63;;;0.93;;
16866;SDS011;8550;52.596;13.320;2023-03-04T23:38:31;6.03;;;1.20;;
16866;SDS011;8550;52.596;13.320;2023-03-04T23:43:33;1.10;;;0.47;;
16866;SDS011;8550;52.596;13.320;2023-03-04T23:48:34;3.55;;;1.30;;
16866;SDS011;8550;52.596;13.320;2023-03-04T23:53:38;7.30;;;1.85;;
16866;SDS011;8550;52.596;13.320;2023-03-04T23:58:40;7.37;;;1.40;;
